Terminal Aerodrome Forecast
Issued by NWS

Home | Current Version | Previous Version | Text Only | Print | Product List | Glossary On
Versions: 1 2 3 4 5 6 7 8 9 10 11 12 13 14 15 16 17 18
000
FTUS42 KGSP 052344 CCA
TAFAND
TAF COR
KAND 052344Z 0600/0624 08005KT 6SM -RA BR BKN045 OVC100
      TEMPO 0601/0603 2SM +RA SCT008 OVC015
     FM060300 07007KT 3SM -RA BR OVC008
     FM061700 04005KT 3SM BR OVC008
     FM062000 32004KT 6SM BR BKN008=

USA.gov is the U.S. government's official web portal to all federal, state and local government web resources and services.